^^
Lockford-Weather Station Historical Data
 
Daily Summary for February 19, 2019 Units:  English    Metric   Both
Daily Weekly Monthly Yearly Custom
  Current: High: Low: Average:
Temperature: 32.7 °F 34.0 °F 11.5 °F 19.7 °F
Dew Point: 22.6 °F 26.9 °F 10.3 °F 16.3 °F
Humidity: 66% 95% 65% 87%
Wind Speed: 2.2mph 4.5mph 0.0mph 0.3mph
Wind Gust: 5.8mph 6.9mph - -
WindSouth - - South
Pressure: 30.12 in 30.19 in 30.12 in -
Precipitation: 0.00 in      
Historical Graphs
 
 
Tabular Data for February 19, 2019
Time Temperature Dew Point Pressure Wind Wind Speed Wind Gust Humidity Rainfall Rate (Hourly)
00:04 19.8 °F 16.0 °F 30.19 in Calm     85% 0.00 in
00:08 19.2 °F 15.7 °F 30.18 in Calm     86% 0.00 in
00:14 19.0 °F 15.5 °F 30.18 in Calm     86% 0.00 in
00:19 19.0 °F 15.8 °F 30.18 in Calm     87% 0.00 in
00:24 19.4 °F 16.4 °F 30.18 in Calm     88% 0.00 in
00:29 19.4 °F 16.4 °F 30.18 in Calm     88% 0.00 in
00:34 19.4 °F 16.7 °F 30.18 in Calm     89% 0.00 in
00:38 19.4 °F 16.7 °F 30.18 in Calm     89% 0.00 in
00:44 19.0 °F 16.1 °F 30.18 in Calm     88% 0.00 in
00:49 18.7 °F 16.2 °F 30.18 in Calm     90% 0.00 in
00:54 18.5 °F 15.8 °F 30.18 in Calm     89% 0.00 in
00:59 18.0 °F 15.3 °F 30.18 in Calm     89% 0.00 in
01:04 18.0 °F 15.5 °F 30.18 in Calm     90% 0.00 in
01:09 18.0 °F 15.8 °F 30.18 in Calm     91% 0.00 in
01:14 17.4 °F 15.2 °F 30.18 in Calm     91% 0.00 in
01:19 17.1 °F 15.1 °F 30.17 in Calm     92% 0.00 in
01:24 16.7 °F 15.0 °F 30.18 in SW 1.6 mph 5.8 mph 93% 0.00 in
01:28 16.9 °F 15.2 °F 30.17 in Calm     93% 0.00 in
01:33 16.7 °F 15.3 °F 30.17 in Calm     94% 0.00 in
01:38 16.5 °F 15.3 °F 30.17 in Calm   2.3 mph 95% 0.00 in
01:43 16.2 °F 15.0 °F 30.18 in Calm     95% 0.00 in
01:48 15.8 °F 14.6 °F 30.18 in Calm     95% 0.00 in
01:54 15.4 °F 14.3 °F 30.18 in Calm     95% 0.00 in
01:58 15.4 °F 14.3 °F 30.18 in Calm     95% 0.00 in
02:04 15.4 °F 14.3 °F 30.17 in Calm     95% 0.00 in
02:08 15.4 °F 14.3 °F 30.17 in Calm     95% 0.00 in
02:13 15.6 °F 14.4 °F 30.18 in Calm     95% 0.00 in
02:18 15.6 °F 14.4 °F 30.18 in Calm     95% 0.00 in
02:23 15.3 °F 14.1 °F 30.18 in Calm     95% 0.00 in
02:28 15.3 °F 14.1 °F 30.17 in Calm   3.5 mph 95% 0.00 in
02:33 15.3 °F 14.1 °F 30.18 in Calm     95% 0.00 in
02:39 15.1 °F 13.9 °F 30.18 in Calm     95% 0.00 in
02:43 14.7 °F 13.5 °F 30.18 in Calm     95% 0.00 in
02:48 14.7 °F 13.5 °F 30.18 in Calm     95% 0.00 in
02:53 14.7 °F 13.5 °F 30.18 in Calm     95% 0.00 in
02:58 14.5 °F 13.4 °F 30.17 in Calm     95% 0.00 in
03:03 14.5 °F 13.4 °F 30.17 in Calm     95% 0.00 in
03:09 14.5 °F 13.4 °F 30.17 in Calm     95% 0.00 in
03:13 14.5 °F 13.4 °F 30.17 in Calm     95% 0.00 in
03:18 14.4 °F 13.2 °F 30.17 in Calm     95% 0.00 in
03:23 14.2 °F 13.0 °F 30.17 in Calm     95% 0.00 in
03:28 14.2 °F 13.0 °F 30.17 in Calm     95% 0.00 in
03:33 14.0 °F 12.8 °F 30.17 in Calm     95% 0.00 in
03:38 13.8 °F 12.7 °F 30.17 in Calm     95% 0.00 in
03:44 13.8 °F 12.7 °F 30.17 in Calm     95% 0.00 in
03:48 13.6 °F 12.5 °F 30.16 in Calm     95% 0.00 in
03:54 13.6 °F 12.5 °F 30.17 in Calm     95% 0.00 in
03:58 13.6 °F 12.5 °F 30.16 in Calm     95% 0.00 in
04:03 13.5 °F 12.3 °F 30.16 in Calm     95% 0.00 in
04:08 13.5 °F 12.3 °F 30.16 in Calm     95% 0.00 in
04:13 13.5 °F 12.3 °F 30.16 in Calm     95% 0.00 in
04:19 13.3 °F 12.1 °F 30.16 in Calm     95% 0.00 in
04:23 13.3 °F 12.1 °F 30.16 in Calm     95% 0.00 in
04:29 13.3 °F 12.1 °F 30.16 in Calm     95% 0.00 in
04:33 13.3 °F 12.1 °F 30.16 in Calm     95% 0.00 in
04:38 13.3 °F 12.1 °F 30.16 in Calm     95% 0.00 in
04:43 13.6 °F 12.5 °F 30.16 in Calm     95% 0.00 in
04:48 13.6 °F 12.5 °F 30.16 in Calm     95% 0.00 in
04:54 13.5 °F 12.3 °F 30.16 in Calm     95% 0.00 in
04:58 13.3 °F 12.1 °F 30.16 in Calm     95% 0.00 in
05:04 12.9 °F 11.8 °F 30.16 in Calm     95% 0.00 in
05:08 12.7 °F 11.6 °F 30.16 in Calm     95% 0.00 in
05:14 12.2 °F 11.0 °F 30.16 in Calm     95% 0.00 in
05:18 12.2 °F 11.0 °F 30.16 in Calm     95% 0.00 in
05:23 11.8 °F 10.7 °F 30.16 in Calm     95% 0.00 in
05:29 11.8 °F 10.7 °F 30.16 in Calm     95% 0.00 in
05:33 11.8 °F 10.7 °F 30.16 in Calm     95% 0.00 in
05:39 12.4 °F 11.2 °F 30.17 in Calm     95% 0.00 in
05:43 12.4 °F 11.2 °F 30.16 in Calm     95% 0.00 in
05:48 12.6 °F 11.4 °F 30.16 in Calm     95% 0.00 in
05:53 12.4 °F 11.2 °F 30.17 in Calm     95% 0.00 in
05:58 12.2 °F 11.0 °F 30.17 in Calm     95% 0.00 in
06:03 11.8 °F 10.7 °F 30.17 in Calm     95% 0.00 in
06:08 12.0 °F 10.9 °F 30.17 in Calm     95% 0.00 in
06:14 11.7 °F 10.5 °F 30.16 in Calm     95% 0.00 in
06:18 11.7 °F 10.5 °F 30.16 in Calm     95% 0.00 in
06:24 11.7 °F 10.5 °F 30.16 in Calm     95% 0.00 in
06:28 11.7 °F 10.5 °F 30.15 in Calm     95% 0.00 in
06:34 11.5 °F 10.3 °F 30.15 in Calm     95% 0.00 in
06:39 11.5 °F 10.3 °F 30.16 in Calm     95% 0.00 in
06:43 11.5 °F 10.3 °F 30.15 in Calm     95% 0.00 in
06:49 11.5 °F 10.3 °F 30.16 in Calm     95% 0.00 in
06:53 11.5 °F 10.3 °F 30.16 in Calm     95% 0.00 in
06:59 11.5 °F 10.3 °F 30.15 in Calm     95% 0.00 in
07:03 11.7 °F 10.5 °F 30.16 in Calm     95% 0.00 in
07:09 11.8 °F 10.7 °F 30.16 in Calm     95% 0.00 in
07:13 11.8 °F 10.7 °F 30.16 in Calm     95% 0.00 in
07:18 12.6 °F 11.4 °F 30.16 in Calm     95% 0.00 in
07:24 13.5 °F 12.3 °F 30.16 in Calm     95% 0.00 in
07:28 14.5 °F 13.4 °F 30.16 in Calm     95% 0.00 in
07:34 16.2 °F 15.0 °F 30.16 in Calm     95% 0.00 in
07:38 16.7 °F 15.5 °F 30.16 in Calm     95% 0.00 in
07:44 17.6 °F 16.4 °F 30.16 in Calm     95% 0.00 in
07:48 19.2 °F 18.0 °F 30.17 in Calm     95% 0.00 in
07:54 21.0 °F 19.8 °F 30.17 in Calm     95% 0.00 in
07:59 22.3 °F 21.1 °F 30.17 in Calm     95% 0.00 in
08:03 23.5 °F 22.3 °F 30.17 in Calm     95% 0.00 in
08:09 23.9 °F 22.7 °F 30.17 in Calm     95% 0.00 in
08:14 24.1 °F 22.9 °F 30.17 in Calm     95% 0.00 in
08:19 25.2 °F 23.9 °F 30.17 in Calm     95% 0.00 in
08:24 26.8 °F 25.3 °F 30.17 in Calm     94% 0.00 in
08:29 29.3 °F 26.5 °F 30.17 in Calm     89% 0.00 in
08:33 30.9 °F 26.9 °F 30.17 in Calm     85% 0.00 in
08:39 31.1 °F 25.0 °F 30.17 in Calm     78% 0.00 in
08:43 32.0 °F 26.2 °F 30.16 in Calm     79% 0.00 in
08:49 32.5 °F 23.5 °F 30.17 in Calm     69% 0.00 in
08:53 32.7 °F 23.7 °F 30.17 in Calm     69% 0.00 in
08:58 31.5 °F 22.8 °F 30.16 in Calm   2.3 mph 70% 0.00 in
09:04 30.6 °F 22.3 °F 30.17 in Calm     71% 0.00 in
09:08 30.6 °F 22.6 °F 30.17 in South 0.7 mph 4.5 mph 72% 0.00 in
09:14 30.7 °F 22.8 °F 30.16 in Calm   1.2 mph 72% 0.00 in
09:18 30.4 °F 22.4 °F 30.16 in Calm   3.5 mph 72% 0.00 in
09:24 29.7 °F 22.1 °F 30.16 in South 1.6 mph 3.5 mph 73% 0.00 in
09:28 28.9 °F 22.0 °F 30.16 in SE 0.7 mph 3.5 mph 75% 0.00 in
09:34 29.7 °F 21.7 °F 30.16 in East 0.7 mph 2.3 mph 72% 0.00 in
09:38 30.2 °F 21.9 °F 30.16 in South 0.7 mph 3.5 mph 71% 0.00 in
09:44 30.7 °F 22.4 °F 30.16 in Calm   3.5 mph 71% 0.00 in
09:48 31.5 °F 22.5 °F 30.16 in South 1.6 mph 2.2 mph 69% 0.00 in
09:54 32.0 °F 22.6 °F 30.16 in Calm   3.5 mph 68% 0.00 in
09:59 31.8 °F 22.5 °F 30.16 in Calm     68% 0.00 in
10:04 32.7 °F 23.7 °F 30.15 in Calm   3.5 mph 69% 0.00 in
10:09 32.9 °F 22.8 °F 30.15 in NE 1.6 mph 3.5 mph 66% 0.00 in
10:14 32.0 °F 21.9 °F 30.15 in Calm   2.3 mph 66% 0.00 in
10:19 32.4 °F 23.0 °F 30.14 in SSE 2.2 mph 4.6 mph 68% 0.00 in
10:23 32.5 °F 23.1 °F 30.14 in South 3.1 mph 4.5 mph 68% 0.00 in
10:29 32.5 °F 22.8 °F 30.14 in South 3.8 mph 6.0 mph 67% 0.00 in
10:34 32.0 °F 23.0 °F 30.14 in SW 2.2 mph 3.8 mph 69% 0.00 in
10:39 32.4 °F 23.0 °F 30.14 in Calm   2.2 mph 68% 0.00 in
10:43 32.7 °F 23.7 °F 30.14 in Calm   2.3 mph 69% 0.00 in
10:49 34.0 °F 23.4 °F 30.14 in East 1.6 mph 3.5 mph 65% 0.00 in
10:53 33.3 °F 23.1 °F 30.13 in South 2.2 mph 3.8 mph 66% 0.00 in
10:59 32.5 °F 22.8 °F 30.13 in SW 0.7 mph 3.5 mph 67% 0.00 in
11:03 32.9 °F 22.4 °F 30.13 in SW 3.8 mph 6.0 mph 65% 0.00 in
11:09 32.0 °F 22.6 °F 30.13 in West 3.1 mph 4.5 mph 68% 0.00 in
11:14 31.5 °F 21.8 °F 30.13 in SW 2.2 mph 3.8 mph 67% 0.00 in
11:19 31.6 °F 22.3 °F 30.12 in NW 1.6 mph 5.8 mph 68% 0.00 in
11:24 32.4 °F 22.6 °F 30.12 in South 1.6 mph 3.8 mph 67% 0.00 in
11:29 32.9 °F 22.8 °F 30.12 in SW 4.5 mph 6.9 mph 66% 0.00 in
11:33 32.7 °F 22.6 °F 30.12 in South 2.2 mph 5.8 mph 66% 0.00 in
Klamath Falls Weather
Compliments of Weather Underground - 2 mb